Time;durP1;ratioP1;P1;durP2;ratioP2;P2;SDS_P1;SDS_P2;PMS_P1;PMS_P2;Temp;Humidity;BMP_temperature;BMP_pressure;BME280_temperature;BME280_humidity;BME280_pressure;Samples;Min_cycle;Max_cycle;Signal;HPM_P1;HPM_P2
2023/06/28 00:00:22;;;;;;;0.00;0.00;;;;;;;;;;5073076;28;20094;-79
2023/06/28 00:02:49;;;;;;;0.00;0.00;;;;;;;;;;5074678;28;20057;-79
2023/06/28 00:05:15;;;;;;;0.00;0.00;;;;;;;;;;5074409;28;20110;-79
2023/06/28 00:07:41;;;;;;;0.00;0.00;;;;;;;;;;5073035;28;20427;-79
2023/06/28 00:10:07;;;;;;;0.00;0.00;;;;;;;;;;5073114;28;20047;-79
2023/06/28 00:12:33;;;;;;;0.00;0.00;;;;;;;;;;5073309;28;20047;-79
2023/06/28 00:14:59;;;;;;;0.00;0.00;;;;;;;;;;5073036;28;20399;-79
2023/06/28 00:17:29;;;;;;;0.00;0.00;;;;;;;;;;5055903;28;20046;-80
2023/06/28 00:19:59;;;;;;;0.00;0.00;;;;;;;;;;5072913;28;20044;-79
2023/06/28 00:22:31;;;;;;;0.00;0.00;;;;;;;;;;5074431;28;20122;-79
2023/06/28 00:24:58;;;;;;;0.00;0.00;;;;;;;;;;5074836;28;20048;-79
2023/06/28 00:27:25;;;;;;;0.00;0.00;;;;;;;;;;5073068;28;20048;-79
2023/06/28 00:29:51;;;;;;;0.00;0.00;;;;;;;;;;5056332;28;20037;-79
2023/06/28 00:32:17;;;;;;;0.00;0.00;;;;;;;;;;5072640;28;20045;-79
2023/06/28 00:34:43;;;;;;;0.00;0.00;;;;;;;;;;5074073;28;20040;-79
2023/06/28 00:37:09;;;;;;;0.00;0.00;;;;;;;;;;5072606;28;20048;-79
2023/06/28 00:39:35;;;;;;;0.00;0.00;;;;;;;;;;5072448;28;20044;-79
2023/06/28 00:42:02;;;;;;;0.00;0.00;;;;;;;;;;5072272;28;20040;-79
2023/06/28 00:44:28;;;;;;;0.00;0.00;;;;;;;;;;5072374;28;20045;-79
2023/06/28 00:46:58;;;;;;;0.00;0.00;;;;;;;;;;5072052;28;20128;-79
2023/06/28 00:49:24;;;;;;;0.00;0.00;;;;;;;;;;5073598;28;20384;-79
2023/06/28 00:51:50;;;;;;;0.00;0.00;;;;;;;;;;5055647;28;20044;-79
2023/06/28 00:54:16;;;;;;;0.00;0.00;;;;;;;;;;5073558;28;20053;-79
2023/06/28 00:56:43;;;;;;;0.00;0.00;;;;;;;;;;5071785;28;20097;-79
2023/06/28 00:59:09;;;;;;;0.00;0.00;;;;;;;;;;5073544;28;20122;-79
2023/06/28 01:01:37;;;;;;;0.00;0.00;;;;;;;;;;5072024;28;20090;-79
2023/06/28 01:04:05;;;;;;;0.00;0.00;;;;;;;;;;5055747;28;20051;-79
2023/06/28 01:06:35;;;;;;;0.00;0.00;;;;;;;;;;5071987;28;20491;-79
2023/06/28 01:09:01;;;;;;;0.00;0.00;;;;;;;;;;5055254;28;20048;-79
2023/06/28 01:11:27;;;;;;;0.00;0.00;;;;;;;;;;5073246;28;20441;-79
2023/06/28 01:13:53;;;;;;;0.00;0.00;;;;;;;;;;5072041;28;20040;-79
2023/06/28 01:16:19;;;;;;;0.00;0.00;;;;;;;;;;5071963;28;20418;-79
2023/06/28 01:18:45;;;;;;;0.00;0.00;;;;;;;;;;5071834;28;20055;-79
2023/06/28 01:21:14;;;;;;;0.00;0.00;;;;;;;;;;5072828;28;20049;-79
2023/06/28 01:23:40;;;;;;;0.00;0.00;;;;;;;;;;5055125;28;20044;-79
2023/06/28 01:26:07;;;;;;;0.00;0.00;;;;;;;;;;5073033;28;20205;-79
2023/06/28 01:28:33;;;;;;;0.00;0.00;;;;;;;;;;5070866;28;20075;-79
2023/06/28 01:31:03;;;;;;;0.00;0.00;;;;;;;;;;5072730;28;20492;-79
2023/06/28 01:33:29;;;;;;;0.00;0.00;;;;;;;;;;5055076;28;20045;-79
2023/06/28 01:35:57;;;;;;;0.00;0.00;;;;;;;;;;5071428;28;20063;-79
2023/06/28 01:38:24;;;;;;;0.00;0.00;;;;;;;;;;5071642;28;20048;-79
2023/06/28 01:40:51;;;;;;;0.00;0.00;;;;;;;;;;5071386;28;20504;-79
2023/06/28 01:43:17;;;;;;;0.00;0.00;;;;;;;;;;5072805;28;20048;-79
2023/06/28 01:45:43;;;;;;;0.00;0.00;;;;;;;;;;5071314;28;20051;-78
2023/06/28 01:48:10;;;;;;;0.00;0.00;;;;;;;;;;5071562;28;20041;-79
2023/06/28 01:50:36;;;;;;;0.00;0.00;;;;;;;;;;5072661;28;20090;-79
2023/06/28 01:53:03;;;;;;;0.00;0.00;;;;;;;;;;5072521;28;20048;-79
2023/06/28 01:55:29;;;;;;;0.00;0.00;;;;;;;;;;5072937;28;20036;-79
2023/06/28 01:57:56;;;;;;;0.00;0.00;;;;;;;;;;5072350;28;20087;-79
2023/06/28 02:00:23;;;;;;;0.00;0.00;;;;;;;;;;5072587;28;20045;-79
2023/06/28 02:02:50;;;;;;;0.00;0.00;;;;;;;;;;5071268;28;20055;-79
2023/06/28 02:05:16;;;;;;;0.00;0.00;;;;;;;;;;5071356;28;20048;-79
2023/06/28 02:07:42;;;;;;;0.00;0.00;;;;;;;;;;5072274;28;20044;-79
2023/06/28 02:10:10;;;;;;;0.00;0.00;;;;;;;;;;5089730;28;20043;-79
2023/06/28 02:12:36;;;;;;;0.00;0.00;;;;;;;;;;5074477;28;20040;-79
2023/06/28 02:15:04;;;;;;;0.00;0.00;;;;;;;;;;5091749;28;20409;-79
2023/06/28 02:17:31;;;;;;;0.00;0.00;;;;;;;;;;5092667;28;20039;-79
2023/06/28 02:19:57;;;;;;;0.00;0.00;;;;;;;;;;5074636;28;20052;-79
2023/06/28 02:22:24;;;;;;;0.00;0.00;;;;;;;;;;5092681;28;20490;-79
2023/06/28 02:24:50;;;;;;;0.00;0.00;;;;;;;;;;5091813;28;20056;-79
2023/06/28 02:27:15;;;;;;;0.00;0.00;;;;;;;;;;5091274;28;20044;-79
2023/06/28 02:29:41;;;;;;;0.00;0.00;;;;;;;;;;5091467;28;20036;-79
2023/06/28 02:32:07;;;;;;;0.00;0.00;;;;;;;;;;5091169;28;20062;-79
2023/06/28 02:34:33;;;;;;;0.00;0.00;;;;;;;;;;5092493;28;20059;-79
2023/06/28 02:37:00;;;;;;;0.00;0.00;;;;;;;;;;5074348;28;20039;-79
2023/06/28 02:39:25;;;;;;;0.00;0.00;;;;;;;;;;5092523;28;20122;-79
2023/06/28 02:41:52;;;;;;;0.00;0.00;;;;;;;;;;5095300;28;20087;-79
2023/06/28 02:44:18;;;;;;;0.00;0.00;;;;;;;;;;5095579;28;20474;-79
2023/06/28 02:46:44;;;;;;;0.00;0.00;;;;;;;;;;5096302;28;20039;-79
2023/06/28 02:49:10;;;;;;;0.00;0.00;;;;;;;;;;5095331;28;20498;-79
2023/06/28 02:51:36;;;;;;;0.00;0.00;;;;;;;;;;5094865;28;20048;-79
2023/06/28 02:54:02;;;;;;;0.00;0.00;;;;;;;;;;5078056;28;20039;-79
2023/06/28 02:56:28;;;;;;;0.00;0.00;;;;;;;;;;5094509;28;20048;-80
2023/06/28 02:58:54;;;;;;;0.00;0.00;;;;;;;;;;5096497;28;20094;-79
2023/06/28 03:01:20;;;;;;;0.00;0.00;;;;;;;;;;5094725;28;20507;-79
2023/06/28 03:03:47;;;;;;;0.00;0.00;;;;;;;;;;5094780;28;20050;-79
2023/06/28 03:06:13;;;;;;;0.00;0.00;;;;;;;;;;5094640;28;20039;-79
2023/06/28 03:08:40;;;;;;;0.00;0.00;;;;;;;;;;5095818;28;20036;-79
2023/06/28 03:11:06;;;;;;;0.00;0.00;;;;;;;;;;5077572;28;20044;-79
2023/06/28 03:13:33;;;;;;;0.00;0.00;;;;;;;;;;5091790;28;20190;-79
2023/06/28 03:15:59;;;;;;;0.00;0.00;;;;;;;;;;5090697;28;20119;-79
2023/06/28 03:18:25;;;;;;;0.00;0.00;;;;;;;;;;5094573;28;20139;-79
2023/06/28 03:20:51;;;;;;;0.00;0.00;;;;;;;;;;5095548;28;20090;-79
2023/06/28 03:23:17;;;;;;;0.00;0.00;;;;;;;;;;5094170;28;20109;-79
2023/06/28 03:25:43;;;;;;;0.00;0.00;;;;;;;;;;5094313;28;20043;-79
2023/06/28 03:28:09;;;;;;;0.00;0.00;;;;;;;;;;5093872;28;20043;-79
2023/06/28 03:30:35;;;;;;;0.00;0.00;;;;;;;;;;5094291;28;20043;-79
2023/06/28 03:33:01;;;;;;;0.00;0.00;;;;;;;;;;5093925;28;20068;-80
2023/06/28 03:35:27;;;;;;;0.00;0.00;;;;;;;;;;5094442;28;20383;-79
2023/06/28 03:37:53;;;;;;;0.00;0.00;;;;;;;;;;5095318;28;20071;-79
2023/06/28 03:40:20;;;;;;;0.00;0.00;;;;;;;;;;5095213;28;20433;-79
2023/06/28 03:42:47;;;;;;;0.00;0.00;;;;;;;;;;5096326;28;20120;-80
2023/06/28 03:45:13;;;;;;;0.00;0.00;;;;;;;;;;5094903;28;20408;-79
2023/06/28 03:47:39;;;;;;;0.00;0.00;;;;;;;;;;5095222;28;20478;-79
2023/06/28 03:50:06;;;;;;;0.00;0.00;;;;;;;;;;5095360;28;20040;-79
2023/06/28 03:52:32;;;;;;;0.00;0.00;;;;;;;;;;5094299;28;20124;-79
2023/06/28 03:54:58;;;;;;;0.00;0.00;;;;;;;;;;5094154;28;20044;-79
2023/06/28 03:57:24;;;;;;;0.00;0.00;;;;;;;;;;5094843;28;20518;-79
2023/06/28 03:59:50;;;;;;;0.00;0.00;;;;;;;;;;5094826;28;20032;-79
2023/06/28 04:02:16;;;;;;;0.00;0.00;;;;;;;;;;5094728;28;20048;-79
2023/06/28 04:04:42;;;;;;;0.00;0.00;;;;;;;;;;5093662;28;20054;-79
2023/06/28 04:07:08;;;;;;;0.00;0.00;;;;;;;;;;5094691;28;20466;-79
2023/06/28 04:09:34;;;;;;;0.00;0.00;;;;;;;;;;5076681;28;20067;-79
2023/06/28 04:12:00;;;;;;;0.00;0.00;;;;;;;;;;5095049;28;20116;-79
2023/06/28 04:14:26;;;;;;;0.00;0.00;;;;;;;;;;5093182;28;20040;-79
2023/06/28 04:16:52;;;;;;;0.00;0.00;;;;;;;;;;5093435;28;20040;-79
2023/06/28 04:19:19;;;;;;;0.00;0.00;;;;;;;;;;5093209;28;20103;-79
2023/06/28 04:21:45;;;;;;;0.00;0.00;;;;;;;;;;5093296;28;20040;-79
2023/06/28 04:24:11;;;;;;;0.00;0.00;;;;;;;;;;5093197;28;20439;-80
2023/06/28 04:26:37;;;;;;;0.00;0.00;;;;;;;;;;5093265;28;20040;-80
2023/06/28 04:29:03;;;;;;;0.00;0.00;;;;;;;;;;5063584;28;20128;-79
2023/06/28 04:31:29;;;;;;;0.00;0.00;;;;;;;;;;5073007;28;20048;-79
2023/06/28 04:33:55;;;;;;;0.00;0.00;;;;;;;;;;5074004;28;20033;-80
2023/06/28 04:36:21;;;;;;;0.00;0.00;;;;;;;;;;5074070;28;20032;-79
2023/06/28 04:38:52;;;;;;;0.00;0.00;;;;;;;;;;5073740;28;20036;-80
2023/06/28 04:41:19;;;;;;;0.00;0.00;;;;;;;;;;5072734;28;20048;-79
2023/06/28 04:43:44;;;;;;;0.00;0.00;;;;;;;;;;5072619;28;20155;-79
2023/06/28 04:46:11;;;;;;;0.00;0.00;;;;;;;;;;5072677;28;20481;-79
2023/06/28 04:48:38;;;;;;;0.00;0.00;;;;;;;;;;5072305;28;20084;-79
2023/06/28 04:51:04;;;;;;;0.00;0.00;;;;;;;;;;5072669;28;20044;-79
2023/06/28 04:53:30;;;;;;;0.00;0.00;;;;;;;;;;5072833;28;20047;-80
2023/06/28 04:55:56;;;;;;;0.00;0.00;;;;;;;;;;5072619;28;20036;-80
2023/06/28 04:58:22;;;;;;;0.00;0.00;;;;;;;;;;5071957;28;20117;-79
2023/06/28 05:00:48;;;;;;;0.00;0.00;;;;;;;;;;5072066;28;20056;-80
2023/06/28 05:03:15;;;;;;;0.00;0.00;;;;;;;;;;5070818;28;20036;-80
2023/06/28 05:05:41;;;;;;;0.00;0.00;;;;;;;;;;5071982;28;20076;-80
2023/06/28 05:08:09;;;;;;;0.00;0.00;;;;;;;;;;5072029;28;20127;-79
2023/06/28 05:10:36;;;;;;;0.00;0.00;;;;;;;;;;5072977;28;20064;-80
2023/06/28 05:13:02;;;;;;;0.00;0.00;;;;;;;;;;5072996;28;20076;-79
2023/06/28 05:15:32;;;;;;;0.00;0.00;;;;;;;;;;5072267;28;20036;-80
2023/06/28 05:17:58;;;;;;;0.00;0.00;;;;;;;;;;5072995;28;20052;-80
2023/06/28 05:20:25;;;;;;;0.00;0.00;;;;;;;;;;5072570;28;20484;-78
2023/06/28 05:23:07;;;;;;;0.00;0.00;;;;;;;;;;5072728;28;20040;-80
2023/06/28 05:25:33;;;;;;;0.00;0.00;;;;;;;;;;5072020;28;20521;-79
2023/06/28 05:27:59;;;;;;;0.00;0.00;;;;;;;;;;5071400;28;20056;-80
2023/06/28 05:30:25;;;;;;;0.00;0.00;;;;;;;;;;5072799;28;20491;-79
2023/06/28 05:32:51;;;;;;;0.00;0.00;;;;;;;;;;5071455;28;20072;-79
2023/06/28 05:35:17;;;;;;;0.00;0.00;;;;;;;;;;5072934;28;20072;-80
2023/06/28 05:37:43;;;;;;;0.00;0.00;;;;;;;;;;5071711;28;20098;-80
2023/06/28 05:40:09;;;;;;;0.00;0.00;;;;;;;;;;5072724;28;20041;-80
2023/06/28 05:42:35;;;;;;;0.00;0.00;;;;;;;;;;5072964;28;20142;-80
2023/06/28 05:45:01;;;;;;;0.00;0.00;;;;;;;;;;5072764;28;20119;-80
2023/06/28 05:47:27;;;;;;;0.00;0.00;;;;;;;;;;5071228;28;20045;-79
2023/06/28 05:49:53;;;;;;;0.00;0.00;;;;;;;;;;5071232;28;20129;-80
2023/06/28 05:52:19;;;;;;;0.00;0.00;;;;;;;;;;5054766;28;20040;-79
2023/06/28 05:54:45;;;;;;;0.00;0.00;;;;;;;;;;5071002;28;20037;-79
2023/06/28 05:57:12;;;;;;;0.00;0.00;;;;;;;;;;5072601;28;20063;-79
2023/06/28 05:59:38;;;;;;;0.00;0.00;;;;;;;;;;5071240;28;20047;-80
2023/06/28 06:02:04;;;;;;;0.00;0.00;;;;;;;;;;5071174;28;20478;-80
2023/06/28 06:04:30;;;;;;;0.00;0.00;;;;;;;;;;5072471;28;20041;-81
2023/06/28 06:06:56;;;;;;;0.00;0.00;;;;;;;;;;5070935;28;20533;-79
2023/06/28 06:09:22;;;;;;;0.00;0.00;;;;;;;;;;5070874;28;20059;-79
2023/06/28 06:11:48;;;;;;;0.00;0.00;;;;;;;;;;5071421;28;20043;-80
2023/06/28 06:14:15;;;;;;;0.00;0.00;;;;;;;;;;5073176;28;20040;-80
2023/06/28 06:16:41;;;;;;;0.00;0.00;;;;;;;;;;5076707;28;20442;-80
2023/06/28 06:19:07;;;;;;;0.00;0.00;;;;;;;;;;5076481;28;20475;-80
2023/06/28 06:21:33;;;;;;;0.00;0.00;;;;;;;;;;5075027;28;20071;-79
2023/06/28 06:24:01;;;;;;;0.00;0.00;;;;;;;;;;5076428;28;20123;-80
2023/06/28 06:26:27;;;;;;;0.00;0.00;;;;;;;;;;5076535;28;20040;-80
2023/06/28 06:28:53;;;;;;;0.00;0.00;;;;;;;;;;5076196;28;20040;-81
2023/06/28 06:31:19;;;;;;;0.00;0.00;;;;;;;;;;5075349;28;20476;-82
2023/06/28 06:33:45;;;;;;;0.00;0.00;;;;;;;;;;5075823;28;20532;-80
2023/06/28 06:36:11;;;;;;;0.00;0.00;;;;;;;;;;5074472;28;20182;-80
2023/06/28 06:38:37;;;;;;;0.00;0.00;;;;;;;;;;5057962;28;20372;-79
2023/06/28 06:41:03;;;;;;;0.00;0.00;;;;;;;;;;5074597;28;20481;-80
2023/06/28 06:43:29;;;;;;;0.00;0.00;;;;;;;;;;5076030;28;20411;-80
2023/06/28 06:45:55;;;;;;;0.00;0.00;;;;;;;;;;5074639;28;20056;-81
2023/06/28 06:48:21;;;;;;;0.00;0.00;;;;;;;;;;5074641;28;20373;-82
2023/06/28 06:50:47;;;;;;;0.00;0.00;;;;;;;;;;5074467;28;20106;-83
2023/06/28 06:53:13;;;;;;;0.00;0.00;;;;;;;;;;5076154;28;20040;-82
2023/06/28 06:55:39;;;;;;;0.00;0.00;;;;;;;;;;5058094;28;20040;-80
2023/06/28 06:58:05;;;;;;;0.00;0.00;;;;;;;;;;5074815;28;20060;-80
2023/06/28 07:00:31;;;;;;;0.00;0.00;;;;;;;;;;5094669;28;20066;-81
2023/06/28 07:02:57;;;;;;;0.00;0.00;;;;;;;;;;5095075;28;20123;-80
2023/06/28 07:05:23;;;;;;;0.00;0.00;;;;;;;;;;5094572;28;20040;-80
2023/06/28 07:07:49;;;;;;;0.00;0.00;;;;;;;;;;5097033;28;20036;-84
2023/06/28 07:10:15;;;;;;;0.00;0.00;;;;;;;;;;5101876;28;20032;-80
2023/06/28 07:12:41;;;;;;;0.00;0.00;;;;;;;;;;5095360;28;20388;-80
2023/06/28 07:15:07;;;;;;;0.00;0.00;;;;;;;;;;5094743;28;20043;-80
2023/06/28 07:17:33;;;;;;;0.00;0.00;;;;;;;;;;5097310;28;20421;-81
2023/06/28 07:19:59;;;;;;;0.00;0.00;;;;;;;;;;5094340;28;20082;-79
2023/06/28 07:22:27;;;;;;;0.00;0.00;;;;;;;;;;5094588;28;20113;-80
2023/06/28 07:24:53;;;;;;;0.00;0.00;;;;;;;;;;5077238;28;20425;-80
2023/06/28 07:27:19;;;;;;;0.00;0.00;;;;;;;;;;5092974;28;20093;-80
2023/06/28 07:29:45;;;;;;;0.00;0.00;;;;;;;;;;5095112;28;20085;-83
2023/06/28 07:32:11;;;;;;;0.00;0.00;;;;;;;;;;5094093;28;20111;-79
2023/06/28 07:34:37;;;;;;;0.00;0.00;;;;;;;;;;5093949;28;20048;-84
2023/06/28 07:37:05;;;;;;;0.00;0.00;;;;;;;;;;5094179;28;20093;-80
2023/06/28 07:39:32;;;;;;;0.00;0.00;;;;;;;;;;5094150;28;20158;-80
2023/06/28 07:41:58;;;;;;;0.00;0.00;;;;;;;;;;5094111;28;20040;-81
2023/06/28 07:44:24;;;;;;;0.00;0.00;;;;;;;;;;5093648;28;20115;-81
2023/06/28 07:46:50;;;;;;;0.28;0.28;;;;;;;;;;5094085;28;20120;-81
2023/06/28 07:49:17;;;;;;;0.00;0.00;;;;;;;;;;5094024;28;20127;-80
2023/06/28 07:51:43;;;;;;;0.00;0.00;;;;;;;;;;5095447;28;20127;-80
2023/06/28 07:54:09;;;;;;;0.00;0.00;;;;;;;;;;5094330;28;20075;-81
2023/06/28 07:56:35;;;;;;;0.00;0.00;;;;;;;;;;5094617;28;20483;-87
2023/06/28 07:59:03;;;;;;;0.00;0.00;;;;;;;;;;5094060;28;20043;-81
2023/06/28 08:01:29;;;;;;;0.00;0.00;;;;;;;;;;5076565;28;20047;-80
2023/06/28 08:03:55;;;;;;;0.00;0.00;;;;;;;;;;5093776;28;20118;-80
2023/06/28 08:06:21;;;;;;;0.00;0.00;;;;;;;;;;5093702;28;20166;-80
2023/06/28 08:08:47;;;;;;;0.00;0.00;;;;;;;;;;5087851;28;20051;-81
2023/06/28 08:11:13;;;;;;;0.00;0.00;;;;;;;;;;5073310;28;20037;-80
2023/06/28 08:13:39;;;;;;;0.00;0.00;;;;;;;;;;5073259;28;20040;-80
2023/06/28 08:16:05;;;;;;;0.00;0.00;;;;;;;;;;5074381;28;20041;-80
2023/06/28 08:18:31;;;;;;;0.00;0.00;;;;;;;;;;5074466;28;20101;-80
2023/06/28 08:20:57;;;;;;;0.00;0.00;;;;;;;;;;5073065;28;20396;-80
2023/06/28 08:23:23;;;;;;;0.00;0.00;;;;;;;;;;5073291;28;20053;-79
2023/06/28 08:25:49;;;;;;;0.00;0.00;;;;;;;;;;5072926;28;20051;-80
2023/06/28 08:28:15;;;;;;;0.00;0.00;;;;;;;;;;5072768;28;20047;-80
2023/06/28 08:30:41;;;;;;;0.00;0.00;;;;;;;;;;5072450;28;20040;-79
2023/06/28 08:33:07;;;;;;;0.00;0.00;;;;;;;;;;5072888;28;20129;-80
2023/06/28 08:35:33;;;;;;;0.00;0.00;;;;;;;;;;5072878;28;20051;-80
2023/06/28 08:37:59;;;;;;;0.00;0.00;;;;;;;;;;5074140;28;20041;-80
2023/06/28 08:40:29;;;;;;;0.00;0.00;;;;;;;;;;5073856;28;20044;-80
2023/06/28 08:42:58;;;;;;;0.00;0.00;;;;;;;;;;5074071;28;20116;-80
2023/06/28 08:45:24;;;;;;;0.00;0.00;;;;;;;;;;5073772;28;20499;-80
2023/06/28 08:47:51;;;;;;;0.00;0.00;;;;;;;;;;5072577;28;20102;-80
2023/06/28 08:50:17;;;;;;;0.00;0.00;;;;;;;;;;5072156;28;20040;-80
2023/06/28 08:52:43;;;;;;;0.00;0.00;;;;;;;;;;5072566;28;20071;-80
2023/06/28 08:55:09;;;;;;;0.00;0.00;;;;;;;;;;5072343;28;20051;-82
2023/06/28 08:57:35;;;;;;;0.00;0.00;;;;;;;;;;5072260;28;20399;-80
2023/06/28 09:00:03;;;;;;;0.10;0.00;;;;;;;;;;5072142;28;20235;-80
2023/06/28 09:02:30;;;;;;;0.00;0.00;;;;;;;;;;5072341;28;20120;-80
2023/06/28 09:04:56;;;;;;;0.00;0.00;;;;;;;;;;5073822;28;20140;-80
2023/06/28 09:07:22;;;;;;;0.00;0.00;;;;;;;;;;5072336;28;20044;-81
2023/06/28 09:09:49;;;;;;;0.00;0.00;;;;;;;;;;5072100;28;20115;-81
2023/06/28 09:12:16;;;;;;;0.00;0.00;;;;;;;;;;5071939;28;20328;-80
2023/06/28 09:14:42;;;;;;;0.00;0.00;;;;;;;;;;5072254;28;20053;-80
2023/06/28 09:17:08;;;;;;;0.00;0.00;;;;;;;;;;5073199;28;20044;-81
2023/06/28 09:19:34;;;;;;;0.00;0.00;;;;;;;;;;5071785;28;20040;-80
2023/06/28 09:22:08;;;;;;;0.00;0.00;;;;;;;;;;5071972;28;20055;-80
2023/06/28 09:24:35;;;;;;;0.00;0.00;;;;;;;;;;5071785;28;20204;-80
2023/06/28 09:27:05;;;;;;;0.00;0.00;;;;;;;;;;5071570;28;20471;-80
2023/06/28 09:29:31;;;;;;;0.00;0.00;;;;;;;;;;5071753;28;20040;-80
2023/06/28 09:31:57;;;;;;;0.00;0.00;;;;;;;;;;5071791;28;20052;-80
2023/06/28 09:34:24;;;;;;;0.00;0.00;;;;;;;;;;5071724;28;20041;-80
2023/06/28 09:36:57;;;;;;;0.00;0.00;;;;;;;;;;5071435;28;20040;-80
2023/06/28 09:39:26;;;;;;;0.00;0.00;;;;;;;;;;5054845;28;20392;-80
2023/06/28 09:41:54;;;;;;;0.00;0.00;;;;;;;;;;5071460;28;20097;-81
2023/06/28 09:44:30;;;;;;;0.00;0.00;;;;;;;;;;5071747;28;20197;-81
2023/06/28 09:47:00;;;;;;;0.00;0.00;;;;;;;;;;5072773;28;20088;-81
2023/06/28 09:49:26;;;;;;;0.00;0.00;;;;;;;;;;5071118;28;20089;-80
2023/06/28 09:51:56;;;;;;;0.00;0.00;;;;;;;;;;5071671;28;20465;-81
2023/06/28 09:54:27;;;;;;;0.00;0.00;;;;;;;;;;5071768;28;20105;-81
2023/06/28 09:56:54;;;;;;;0.00;0.00;;;;;;;;;;5072594;28;20061;-80
2023/06/28 09:59:21;;;;;;;0.00;0.00;;;;;;;;;;5071445;28;20049;-80
2023/06/28 10:01:49;;;;;;;0.00;0.00;;;;;;;;;;5072628;28;20036;-80
2023/06/28 10:04:17;;;;;;;0.00;0.00;;;;;;;;;;5071375;28;20051;-80
2023/06/28 10:06:44;;;;;;;0.00;0.00;;;;;;;;;;5071396;28;20103;-81
2023/06/28 10:09:15;;;;;;;0.00;0.00;;;;;;;;;;5054702;28;20055;-81
2023/06/28 10:11:43;;;;;;;0.00;0.00;;;;;;;;;;5071462;28;20141;-80
2023/06/28 10:14:09;;;;;;;0.00;0.00;;;;;;;;;;5071740;28;20098;-81
2023/06/28 10:16:36;;;;;;;0.00;0.00;;;;;;;;;;5072443;28;20037;-81
2023/06/28 10:19:02;;;;;;;0.00;0.00;;;;;;;;;;5071480;28;20048;-81
2023/06/28 10:21:28;;;;;;;0.00;0.00;;;;;;;;;;5071277;28;20052;-80
2023/06/28 10:23:55;;;;;;;0.00;0.00;;;;;;;;;;5071276;28;20036;-81
2023/06/28 10:26:22;;;;;;;0.00;0.00;;;;;;;;;;5070990;28;20087;-80
2023/06/28 10:28:49;;;;;;;0.00;0.00;;;;;;;;;;5072326;28;20552;-81
2023/06/28 10:31:15;;;;;;;0.00;0.00;;;;;;;;;;5071000;28;20040;-80
2023/06/28 10:33:41;;;;;;;0.00;0.00;;;;;;;;;;5072429;28;20117;-81
2023/06/28 10:36:07;;;;;;;0.00;0.00;;;;;;;;;;5072321;28;20463;-80
2023/06/28 10:38:36;;;;;;;0.00;0.00;;;;;;;;;;5070938;28;20056;-81
2023/06/28 10:41:03;;;;;;;0.00;0.00;;;;;;;;;;5071076;28;20032;-82
2023/06/28 10:43:29;;;;;;;0.00;0.00;;;;;;;;;;5071048;28;20099;-81
2023/06/28 10:45:55;;;;;;;0.00;0.00;;;;;;;;;;5054232;28;20040;-81
2023/06/28 10:48:22;;;;;;;0.00;0.00;;;;;;;;;;5071864;28;20063;-81
2023/06/28 10:50:49;;;;;;;0.00;0.00;;;;;;;;;;5070846;28;20111;-81
2023/06/28 10:53:22;;;;;;;0.00;0.00;;;;;;;;;;5070819;28;20072;-82
2023/06/28 10:56:08;;;;;;;0.00;0.00;;;;;;;;;;5072142;28;20055;-81
2023/06/28 10:58:41;;;;;;;0.00;0.00;;;;;;;;;;5070796;28;20049;-82
2023/06/28 11:01:08;;;;;;;0.00;0.00;;;;;;;;;;5073154;28;20053;-82
2023/06/28 11:03:44;;;;;;;0.00;0.00;;;;;;;;;;5074762;28;20452;-82
2023/06/28 11:06:11;;;;;;;0.00;0.00;;;;;;;;;;5074570;28;20048;-82
2023/06/28 11:08:42;;;;;;;0.00;0.00;;;;;;;;;;5074157;28;20376;-81
2023/06/28 11:11:09;;;;;;;0.00;0.00;;;;;;;;;;5074350;28;20045;-81
2023/06/28 11:13:42;;;;;;;0.00;0.00;;;;;;;;;;5074227;28;20040;-82
2023/06/28 11:16:09;;;;;;;0.00;0.00;;;;;;;;;;5075784;28;20036;-82
2023/06/28 11:18:36;;;;;;;0.00;0.00;;;;;;;;;;5074312;28;20053;-81
2023/06/28 11:21:02;;;;;;;0.00;0.00;;;;;;;;;;5074236;28;20072;-82
2023/06/28 11:23:29;;;;;;;0.00;0.00;;;;;;;;;;5074268;28;20067;-81
2023/06/28 11:26:00;;;;;;;0.00;0.00;;;;;;;;;;5074300;28;20094;-81
2023/06/28 11:28:31;;;;;;;0.00;0.00;;;;;;;;;;5073872;28;20435;-81
2023/06/28 11:31:11;;;;;;;0.00;0.00;;;;;;;;;;5074111;28;20040;-81
2023/06/28 11:33:37;;;;;;;0.00;0.00;;;;;;;;;;5075239;28;20062;-85
2023/06/28 11:36:04;;;;;;;0.00;0.00;;;;;;;;;;5074331;28;20506;-81
2023/06/28 11:38:31;;;;;;;0.00;0.00;;;;;;;;;;5073839;28;20040;-80
2023/06/28 11:40:58;;;;;;;0.00;0.00;;;;;;;;;;5073846;28;20118;-80
2023/06/28 11:43:24;;;;;;;0.00;0.00;;;;;;;;;;5057346;28;20135;-80
2023/06/28 11:45:50;;;;;;;0.00;0.00;;;;;;;;;;5075191;28;20086;-81
2023/06/28 11:48:17;;;;;;;0.00;0.00;;;;;;;;;;5074723;28;20048;-83
2023/06/28 11:50:43;;;;;;;0.00;0.00;;;;;;;;;;5073891;28;20136;-81
2023/06/28 11:53:09;;;;;;;0.00;0.00;;;;;;;;;;5075218;28;20124;-80
2023/06/28 11:55:36;;;;;;;0.00;0.00;;;;;;;;;;5075408;28;20563;-80
2023/06/28 11:58:02;;;;;;;0.00;0.00;;;;;;;;;;5073445;28;20144;-80
2023/06/28 12:00:40;;;;;;;0.00;0.00;;;;;;;;;;5073817;28;20147;-80
2023/06/28 12:03:06;;;;;;;0.00;0.00;;;;;;;;;;5074684;28;20036;-80
2023/06/28 12:05:32;;;;;;;0.00;0.00;;;;;;;;;;5075042;28;20459;-80
2023/06/28 12:07:58;;;;;;;0.00;0.00;;;;;;;;;;5074368;28;20093;-79
2023/06/28 12:10:31;;;;;;;0.00;0.00;;;;;;;;;;5073406;28;20409;-80
2023/06/28 12:12:57;;;;;;;0.00;0.00;;;;;;;;;;5072727;28;20041;-80
2023/06/28 12:15:26;;;;;;;0.00;0.00;;;;;;;;;;5073445;28;20059;-80
2023/06/28 12:17:52;;;;;;;0.00;0.00;;;;;;;;;;5073359;28;20192;-81
2023/06/28 12:20:22;;;;;;;0.00;0.00;;;;;;;;;;5073344;28;20052;-80
2023/06/28 12:22:48;;;;;;;0.00;0.00;;;;;;;;;;5074419;28;20048;-80
2023/06/28 12:25:14;;;;;;;0.00;0.00;;;;;;;;;;5073151;28;20098;-80
2023/06/28 12:27:41;;;;;;;0.00;0.00;;;;;;;;;;5074167;28;20119;-80
2023/06/28 12:30:10;;;;;;;0.00;0.00;;;;;;;;;;5074497;28;20048;-80
2023/06/28 12:32:39;;;;;;;0.00;0.00;;;;;;;;;;5072695;28;20044;-80
2023/06/28 12:35:06;;;;;;;0.00;0.00;;;;;;;;;;5072861;28;20101;-80
2023/06/28 12:37:35;;;;;;;0.00;0.00;;;;;;;;;;5072595;28;20051;-80
2023/06/28 12:40:08;;;;;;;0.00;0.00;;;;;;;;;;5073124;28;20334;-80
2023/06/28 12:42:34;;;;;;;0.00;0.00;;;;;;;;;;5072714;28;20113;-80
2023/06/28 12:45:00;;;;;;;0.00;0.00;;;;;;;;;;5073981;28;20084;-80
2023/06/28 12:47:30;;;;;;;0.00;0.00;;;;;;;;;;5072584;28;20127;-80
2023/06/28 12:49:56;;;;;;;0.00;0.00;;;;;;;;;;5072432;28;20040;-80
2023/06/28 12:52:24;;;;;;;0.00;0.00;;;;;;;;;;5072375;28;20040;-80
2023/06/28 12:54:53;;;;;;;0.00;0.00;;;;;;;;;;5073614;28;20094;-80
2023/06/28 12:57:21;;;;;;;0.00;0.00;;;;;;;;;;5073560;28;20506;-80
2023/06/28 12:59:48;;;;;;;0.00;0.00;;;;;;;;;;5055864;28;20048;-80
2023/06/28 13:02:14;;;;;;;0.00;0.00;;;;;;;;;;5073734;28;20040;-81
2023/06/28 13:04:40;;;;;;;0.00;0.00;;;;;;;;;;5072200;28;20119;-80
2023/06/28 13:07:07;;;;;;;0.00;0.00;;;;;;;;;;5072198;28;20041;-80
2023/06/28 13:09:33;;;;;;;0.00;0.00;;;;;;;;;;5073202;28;20033;-80
2023/06/28 13:11:59;;;;;;;0.00;0.00;;;;;;;;;;5072116;28;20048;-80
2023/06/28 13:14:26;;;;;;;0.00;0.00;;;;;;;;;;5072217;28;20066;-80
2023/06/28 13:16:52;;;;;;;0.00;0.00;;;;;;;;;;5072191;28;20042;-80
2023/06/28 13:19:18;;;;;;;0.00;0.00;;;;;;;;;;5073452;28;20070;-80
2023/06/28 13:21:51;;;;;;;0.00;0.00;;;;;;;;;;5072017;28;20052;-80
2023/06/28 13:24:17;;;;;;;0.00;0.00;;;;;;;;;;5070952;28;20048;-87
2023/06/28 13:26:43;;;;;;;0.00;0.00;;;;;;;;;;5055136;28;20380;-80
2023/06/28 13:29:10;;;;;;;0.00;0.00;;;;;;;;;;5075389;28;20040;-80
2023/06/28 13:31:36;;;;;;;0.00;0.00;;;;;;;;;;5071933;28;20044;-80
2023/06/28 13:34:01;;;;;;;0.00;0.00;;;;;;;;;;5071411;28;20033;-80
2023/06/28 13:36:27;;;;;;;0.00;0.00;;;;;;;;;;5071761;28;20110;-80
2023/06/28 13:38:53;;;;;;;0.00;0.00;;;;;;;;;;5071576;28;20044;-80
2023/06/28 13:41:20;;;;;;;0.00;0.00;;;;;;;;;;5071757;28;20067;-80
2023/06/28 13:43:46;;;;;;;0.00;0.00;;;;;;;;;;5071468;28;20046;-80
2023/06/28 13:46:12;;;;;;;0.00;0.00;;;;;;;;;;5071739;28;20127;-80
2023/06/28 13:48:38;;;;;;;0.00;0.00;;;;;;;;;;5072567;28;20510;-80
2023/06/28 13:51:04;;;;;;;0.00;0.00;;;;;;;;;;5071559;28;20066;-81
2023/06/28 13:53:30;;;;;;;0.00;0.00;;;;;;;;;;5071015;28;20082;-80
2023/06/28 13:55:58;;;;;;;0.00;0.00;;;;;;;;;;5072688;28;20117;-80
2023/06/28 13:58:24;;;;;;;0.00;0.00;;;;;;;;;;5072668;28;20177;-80
2023/06/28 14:00:53;;;;;;;0.00;0.00;;;;;;;;;;5071079;28;20043;-81
2023/06/28 14:03:19;;;;;;;0.00;0.00;;;;;;;;;;5054406;28;20051;-80
2023/06/28 14:05:45;;;;;;;0.00;0.00;;;;;;;;;;5071269;28;20052;-80
2023/06/28 14:08:11;;;;;;;0.00;0.00;;;;;;;;;;5070611;28;20467;-80
2023/06/28 14:10:37;;;;;;;0.00;0.00;;;;;;;;;;5071205;28;20120;-80
2023/06/28 14:13:04;;;;;;;0.00;0.00;;;;;;;;;;5071070;28;20465;-80
2023/06/28 14:15:31;;;;;;;0.00;0.00;;;;;;;;;;5072262;28;20048;-80
2023/06/28 14:17:57;;;;;;;0.10;0.10;;;;;;;;;;5071076;28;20044;-81
2023/06/28 14:20:23;;;;;;;0.00;0.00;;;;;;;;;;5071061;28;20055;-80
2023/06/28 14:22:50;;;;;;;0.00;0.00;;;;;;;;;;5072182;28;20144;-80
2023/06/28 14:25:17;;;;;;;0.00;0.00;;;;;;;;;;5072124;28;20458;-80
2023/06/28 14:27:43;;;;;;;0.38;0.10;;;;;;;;;;5070624;28;20072;-80
2023/06/28 14:30:09;;;;;;;0.00;0.00;;;;;;;;;;5071868;28;20032;-80
2023/06/28 14:32:35;;;;;;;0.00;0.00;;;;;;;;;;5071208;28;20123;-80
2023/06/28 14:35:01;;;;;;;0.00;0.00;;;;;;;;;;5072390;28;20358;-80
2023/06/28 14:37:27;;;;;;;0.00;0.00;;;;;;;;;;5074785;28;20060;-80
2023/06/28 14:39:53;;;;;;;0.00;0.00;;;;;;;;;;5074718;28;20048;-80